Time;durP1;ratioP1;P1;durP2;ratioP2;P2;SDS_P1;SDS_P2;PMS_P1;PMS_P2;Temp;Humidity;BMP_temperature;BMP_pressure;BME280_temperature;BME280_humidity;BME280_pressure;Samples;Min_cycle;Max_cycle;Signal;HPM_P1;HPM_P2
2023/07/15 00:01:29;;;;;;;9.47;4.00;;;22.60;64.80;;;;;;5051461;28;20460;-80
2023/07/15 00:03:55;;;;;;;6.30;4.13;;;22.60;64.70;;;;;;5056618;28;20989;-80
2023/07/15 00:06:22;;;;;;;6.23;3.87;;;22.60;64.50;;;;;;5058407;28;20453;-79
2023/07/15 00:08:50;;;;;;;5.67;3.67;;;22.60;64.80;;;;;;5062087;28;20429;-79
2023/07/15 00:11:18;;;;;;;7.40;4.30;;;22.60;64.50;;;;;;5052041;28;21058;-79
2023/07/15 00:13:44;;;;;;;5.60;4.00;;;22.60;64.70;;;;;;5052771;28;20476;-80
2023/07/15 00:16:09;;;;;;;6.60;4.93;;;22.50;64.80;;;;;;5053516;28;20498;-82
2023/07/15 00:18:35;;;;;;;11.67;5.70;;;22.60;65.30;;;;;;5051238;28;20198;-79
2023/07/15 00:21:20;;;;;;;6.73;4.73;;;22.60;65.40;;;;;;5048328;28;20209;-79
2023/07/15 00:23:55;;;;;;;8.20;4.90;;;22.40;65.70;;;;;;5048784;28;20277;-78
2023/07/15 00:26:22;;;;;;;7.73;4.80;;;22.40;66.00;;;;;;5044891;28;20864;-79
2023/07/15 00:28:50;;;;;;;8.93;5.60;;;22.30;66.30;;;;;;5053790;28;20926;-78
2023/07/15 00:31:17;;;;;;;7.77;5.20;;;22.30;66.10;;;;;;5053197;28;20807;-79
2023/07/15 00:33:44;;;;;;;6.47;4.77;;;22.30;66.10;;;;;;5055367;28;20484;-78
2023/07/15 00:36:12;;;;;;;7.00;5.30;;;22.30;66.30;;;;;;5048408;28;20420;-77
2023/07/15 00:38:38;;;;;;;7.20;4.87;;;22.30;66.30;;;;;;5046881;28;20920;-77
2023/07/15 00:41:14;;;;;;;7.60;5.00;;;22.30;66.30;;;;;;5051256;28;20456;-78
2023/07/15 00:43:56;;;;;;;5.53;4.50;;;22.20;66.30;;;;;;5054289;28;20465;-76
2023/07/15 00:46:22;;;;;;;6.30;4.87;;;22.20;66.30;;;;;;5054389;28;20934;-77
2023/07/15 00:49:05;;;;;;;6.77;5.00;;;22.20;66.30;;;;;;5053284;28;20437;-77
2023/07/15 00:51:33;;;;;;;7.30;4.70;;;22.20;66.40;;;;;;5046979;28;20468;-77
2023/07/15 00:53:59;;;;;;;6.73;4.60;;;22.20;66.60;;;;;;5050266;28;20477;-77
2023/07/15 00:56:27;;;;;;;7.33;4.40;;;22.20;66.60;;;;;;5050403;28;20439;-77
2023/07/15 00:58:53;;;;;;;6.00;4.40;;;22.20;66.60;;;;;;5054712;28;20441;-77
2023/07/15 01:01:19;;;;;;;7.23;4.70;;;22.20;66.60;;;;;;5050997;28;20453;-77
2023/07/15 01:03:45;;;;;;;6.40;4.60;;;22.10;66.70;;;;;;5054816;28;20452;-77
2023/07/15 01:06:11;;;;;;;8.00;4.57;;;22.10;66.40;;;;;;5055290;28;20271;-77
2023/07/15 01:08:37;;;;;;;7.70;4.67;;;22.10;66.70;;;;;;5054531;28;20192;-77
2023/07/15 01:11:03;;;;;;;6.77;4.47;;;22.10;66.40;;;;;;5050208;28;20461;-77
2023/07/15 01:13:28;;;;;;;5.87;4.20;;;22.10;66.70;;;;;;5050835;28;20483;-77
2023/07/15 01:15:54;;;;;;;6.63;4.73;;;22.10;66.70;;;;;;5052931;28;20192;-77
2023/07/15 01:18:20;;;;;;;6.03;4.67;;;22.10;67.00;;;;;;5052811;28;20842;-78
2023/07/15 01:20:47;;;;;;;7.83;5.00;;;22.10;66.90;;;;;;5049593;28;20343;-77
2023/07/15 01:23:13;;;;;;;11.83;5.03;;;22.20;66.90;;;;;;5052848;28;20444;-78
2023/07/15 01:25:39;;;;;;;5.93;4.90;;;22.10;66.90;;;;;;5052224;28;20431;-77
2023/07/15 01:28:04;;;;;;;6.33;4.80;;;22.10;67.00;;;;;;5045748;28;20441;-77
2023/07/15 01:30:30;;;;;;;6.20;4.10;;;22.20;66.60;;;;;;5049009;28;20201;-77
2023/07/15 01:32:56;;;;;;;9.40;4.87;;;22.20;66.70;;;;;;5048969;28;20277;-78
2023/07/15 01:35:22;;;;;;;5.87;4.60;;;22.20;66.90;;;;;;5051072;28;20189;-77
2023/07/15 01:37:48;;;;;;;6.17;4.13;;;22.20;66.70;;;;;;5053262;28;20188;-77
2023/07/15 01:40:13;;;;;;;7.10;4.90;;;22.10;66.90;;;;;;5049826;28;20927;-77
2023/07/15 01:42:42;;;;;;;7.70;4.53;;;22.20;66.90;;;;;;5052172;28;20202;-77
2023/07/15 01:45:10;;;;;;;6.53;4.67;;;22.20;66.90;;;;;;5052700;28;20196;-78
2023/07/15 01:47:36;;;;;;;6.80;4.40;;;22.20;66.90;;;;;;5053034;28;20428;-76
2023/07/15 01:50:03;;;;;;;6.70;4.90;;;22.30;66.60;;;;;;5050182;28;20473;-77
2023/07/15 01:52:31;;;;;;;6.30;4.40;;;22.30;66.40;;;;;;5052750;28;20488;-77
2023/07/15 01:54:56;;;;;;;5.20;4.10;;;22.30;66.60;;;;;;5053319;28;20447;-77
2023/07/15 01:57:25;;;;;;;7.43;4.23;;;22.40;66.60;;;;;;5052969;28;20452;-76
2023/07/15 01:59:57;;;;;;;6.10;4.23;;;22.40;66.60;;;;;;5052396;28;20234;-77
2023/07/15 02:02:23;;;;;;;6.03;4.43;;;22.40;66.60;;;;;;5053618;28;20421;-76
2023/07/15 02:04:49;;;;;;;5.30;4.40;;;22.40;66.60;;;;;;5052429;28;20460;-76
2023/07/15 02:07:15;;;;;;;6.07;4.63;;;22.40;66.60;;;;;;5052657;28;20523;-77
2023/07/15 02:09:40;;;;;;;5.30;4.37;;;22.40;66.60;;;;;;5051248;28;20430;-77
2023/07/15 02:12:06;;;;;;;7.07;4.70;;;22.40;66.40;;;;;;5050705;28;20185;-77
2023/07/15 02:14:32;;;;;;;5.70;4.60;;;22.40;66.60;;;;;;5053548;28;20726;-77
2023/07/15 02:16:58;;;;;;;6.77;4.63;;;22.40;66.70;;;;;;5051453;28;20452;-77
2023/07/15 02:19:23;;;;;;;6.97;4.77;;;22.40;66.70;;;;;;5051861;28;20189;-76
2023/07/15 02:21:49;;;;;;;8.30;4.87;;;22.40;66.70;;;;;;5053342;28;20192;-75
2023/07/15 02:24:15;;;;;;;5.97;4.27;;;22.40;66.40;;;;;;5055933;28;20203;-78
2023/07/15 02:26:40;;;;;;;5.57;4.20;;;22.50;66.30;;;;;;5047265;28;20204;-78
2023/07/15 02:29:06;;;;;;;5.47;4.17;;;22.50;66.00;;;;;;5050225;28;20189;-76
2023/07/15 02:31:31;;;;;;;5.70;4.07;;;22.50;66.30;;;;;;5052538;28;20582;-77
2023/07/15 02:33:57;;;;;;;6.57;4.40;;;22.50;66.10;;;;;;5051458;28;20217;-77
2023/07/15 02:36:22;;;;;;;7.37;4.70;;;22.50;66.10;;;;;;5053092;28;20207;-76
2023/07/15 02:38:48;;;;;;;8.03;4.10;;;22.60;66.10;;;;;;5054250;28;20186;-77
2023/07/15 02:41:14;;;;;;;7.27;4.40;;;22.60;66.10;;;;;;5049898;28;20714;-77
2023/07/15 02:43:40;;;;;;;5.87;4.80;;;22.50;66.00;;;;;;5050994;28;20924;-77
2023/07/15 02:46:06;;;;;;;6.60;4.50;;;22.60;66.10;;;;;;5047969;28;20949;-76
2023/07/15 02:48:31;;;;;;;6.13;4.03;;;22.50;66.10;;;;;;5049595;28;20195;-77
2023/07/15 02:50:57;;;;;;;6.70;4.63;;;22.50;66.10;;;;;;5044791;28;20229;-77
2023/07/15 02:53:22;;;;;;;7.00;4.67;;;22.40;66.10;;;;;;5051389;28;20256;-77
2023/07/15 02:55:50;;;;;;;6.37;4.10;;;22.40;66.00;;;;;;5055487;28;20274;-77
2023/07/15 02:58:17;;;;;;;6.20;4.00;;;22.50;66.00;;;;;;5058812;28;20213;-78
2023/07/15 03:00:43;;;;;;;5.37;3.93;;;22.50;66.00;;;;;;5053747;28;20471;-77
2023/07/15 03:03:09;;;;;;;7.50;4.67;;;22.50;65.80;;;;;;5051977;28;20803;-77
2023/07/15 03:05:35;;;;;;;7.23;3.90;;;22.50;65.80;;;;;;5056742;28;20624;-78
2023/07/15 03:08:01;;;;;;;5.97;4.23;;;22.50;65.80;;;;;;5057569;28;20442;-77
2023/07/15 03:10:27;;;;;;;6.83;4.50;;;22.50;65.80;;;;;;5053435;28;20454;-77
2023/07/15 03:12:52;;;;;;;6.57;4.50;;;22.50;65.80;;;;;;5057515;28;20223;-78
2023/07/15 03:15:19;;;;;;;6.03;3.87;;;22.50;66.00;;;;;;5054280;28;20192;-78
2023/07/15 03:17:44;;;;;;;5.27;4.27;;;22.50;66.00;;;;;;5057160;28;20677;-77
2023/07/15 03:20:19;;;;;;;7.33;4.90;;;22.40;66.10;;;;;;5048645;28;20548;-77
2023/07/15 03:22:50;;;;;;;5.67;4.23;;;22.40;66.30;;;;;;5050906;28;20188;-77
2023/07/15 03:25:19;;;;;;;4.70;3.80;;;22.40;66.30;;;;;;5052997;28;20556;-76
2023/07/15 03:27:45;;;;;;;4.93;4.10;;;22.40;66.40;;;;;;5056377;28;20443;-77
2023/07/15 03:30:11;;;;;;;7.53;4.90;;;22.40;66.60;;;;;;5056752;28;20459;-77
2023/07/15 03:32:38;;;;;;;7.63;4.33;;;22.40;66.70;;;;;;5056493;28;20513;-77
2023/07/15 03:35:04;;;;;;;6.70;4.40;;;22.30;66.90;;;;;;5058826;28;20427;-77
2023/07/15 03:37:33;;;;;;;9.70;4.10;;;22.30;67.00;;;;;;5050954;28;20968;-77
2023/07/15 03:39:59;;;;;;;5.60;4.90;;;22.30;67.20;;;;;;5055114;28;20457;-77
2023/07/15 03:42:26;;;;;;;6.57;4.93;;;22.30;67.20;;;;;;5058580;28;20415;-77
2023/07/15 03:44:53;;;;;;;6.07;4.27;;;22.40;67.20;;;;;;5060262;28;20190;-77
2023/07/15 03:47:19;;;;;;;6.07;3.97;;;22.40;67.20;;;;;;5064601;28;20528;-77
2023/07/15 03:49:45;;;;;;;9.80;5.23;;;22.40;67.20;;;;;;5059838;28;20473;-78
2023/07/15 03:52:11;;;;;;;6.60;4.83;;;22.40;67.20;;;;;;5072483;28;20924;-76
2023/07/15 03:54:36;;;;;;;10.27;5.70;;;22.50;67.20;;;;;;5068361;28;20460;-77
2023/07/15 03:57:02;;;;;;;7.80;4.50;;;22.50;67.20;;;;;;5066704;28;20204;-77
2023/07/15 03:59:28;;;;;;;5.80;4.63;;;22.50;67.20;;;;;;5066189;28;20223;-76
2023/07/15 04:01:54;;;;;;;7.70;4.73;;;22.40;67.50;;;;;;5054569;28;20958;-78
2023/07/15 04:04:21;;;;;;;7.07;4.50;;;22.40;67.50;;;;;;5058844;28;20189;-76
2023/07/15 04:06:47;;;;;;;9.17;5.20;;;22.40;67.60;;;;;;5057318;28;20199;-77
2023/07/15 04:09:12;;;;;;;6.90;4.40;;;22.50;67.50;;;;;;5056424;28;20513;-77
2023/07/15 04:11:40;;;;;;;10.43;4.97;;;22.50;67.50;;;;;;5052082;28;20217;-77
2023/07/15 04:14:06;;;;;;;5.97;4.33;;;22.60;67.30;;;;;;5054480;28;20989;-77
2023/07/15 04:16:32;;;;;;;6.20;4.73;;;22.60;67.50;;;;;;5055119;28;20441;-77
2023/07/15 04:18:57;;;;;;;5.97;4.83;;;22.50;67.60;;;;;;5054381;28;20220;-77
2023/07/15 04:21:23;;;;;;;5.83;4.27;;;22.40;67.70;;;;;;5050385;28;20211;-77
2023/07/15 04:23:49;;;;;;;7.50;5.57;;;22.50;67.70;;;;;;5055512;28;20699;-77
2023/07/15 04:26:22;;;;;;;7.20;5.20;;;22.50;67.70;;;;;;5046965;28;20185;-77
2023/07/15 04:28:49;;;;;;;6.87;4.67;;;22.40;67.70;;;;;;5049001;28;20253;-78
2023/07/15 04:31:15;;;;;;;5.67;4.67;;;22.30;67.90;;;;;;5051329;28;20459;-78
2023/07/15 04:33:42;;;;;;;8.50;5.37;;;22.30;67.90;;;;;;5056101;28;20529;-76
2023/07/15 04:36:07;;;;;;;9.30;4.93;;;22.40;68.00;;;;;;5055850;28;20790;-78
2023/07/15 04:38:33;;;;;;;7.40;5.10;;;22.40;68.00;;;;;;5057117;28;20432;-77
2023/07/15 04:40:58;;;;;;;10.60;6.30;;;22.40;68.00;;;;;;5049338;28;20222;-77
2023/07/15 04:43:24;;;;;;;10.50;5.00;;;22.50;68.00;;;;;;5055500;28;20697;-77
2023/07/15 04:45:50;;;;;;;9.17;5.30;;;22.50;67.70;;;;;;5053059;28;20190;-77
2023/07/15 04:48:15;;;;;;;7.23;5.10;;;22.60;67.70;;;;;;5053829;28;20652;-79
2023/07/15 04:50:41;;;;;;;8.47;5.17;;;22.60;67.70;;;;;;5049892;28;20242;-77
2023/07/15 04:53:07;;;;;;;8.40;4.97;;;22.60;67.60;;;;;;5053325;28;20683;-78
2023/07/15 04:55:33;;;;;;;7.90;4.73;;;22.60;67.50;;;;;;5052812;28;20193;-77
2023/07/15 04:57:59;;;;;;;6.27;4.17;;;22.70;67.30;;;;;;5053000;28;20213;-77
2023/07/15 05:00:27;;;;;;;9.93;4.40;;;22.60;67.50;;;;;;5050345;28;20463;-79
2023/07/15 05:02:52;;;;;;;7.30;4.63;;;22.60;67.60;;;;;;5054234;28;20193;-80
2023/07/15 05:05:18;;;;;;;7.27;4.90;;;22.70;67.60;;;;;;5053298;28;20534;-80
2023/07/15 05:07:44;;;;;;;8.23;4.57;;;22.70;67.60;;;;;;5053670;28;21024;-81
2023/07/15 05:10:11;;;;;;;8.33;4.70;;;22.70;67.50;;;;;;5048807;28;20487;-80
2023/07/15 05:12:36;;;;;;;4.40;4.10;;;22.80;67.50;;;;;;5054385;28;20247;-78
2023/07/15 05:15:03;;;;;;;6.70;4.93;;;22.80;67.30;;;;;;5057402;28;20962;-78
2023/07/15 05:17:29;;;;;;;8.50;5.20;;;22.80;67.30;;;;;;5053261;28;20743;-81
2023/07/15 05:19:54;;;;;;;7.30;5.13;;;22.90;67.30;;;;;;5051382;28;20556;-77
2023/07/15 05:22:20;;;;;;;6.63;4.63;;;22.90;67.30;;;;;;5053468;28;20178;-78
2023/07/15 05:24:48;;;;;;;8.23;4.90;;;23.00;67.20;;;;;;5053879;28;20193;-83
2023/07/15 05:27:14;;;;;;;8.10;4.90;;;23.00;66.70;;;;;;5058366;28;20197;-80
2023/07/15 05:29:39;;;;;;;5.33;4.57;;;23.10;66.90;;;;;;5053324;28;20477;-80
2023/07/15 05:32:06;;;;;;;6.00;4.43;;;23.10;66.60;;;;;;5056997;28;20421;-78
2023/07/15 05:34:31;;;;;;;6.63;5.00;;;23.20;66.60;;;;;;5058903;28;20218;-78
2023/07/15 05:36:57;;;;;;;7.37;4.73;;;23.20;66.40;;;;;;5060691;28;20429;-79
2023/07/15 05:39:22;;;;;;;5.70;4.60;;;23.30;66.30;;;;;;5058598;28;20194;-79
2023/07/15 05:41:48;;;;;;;5.93;4.23;;;23.40;66.10;;;;;;5051128;28;20268;-78
2023/07/15 05:44:14;;;;;;;6.03;4.30;;;23.40;65.80;;;;;;5054730;28;20201;-79
2023/07/15 05:46:39;;;;;;;5.40;4.27;;;23.40;65.70;;;;;;5051228;28;20198;-80
2023/07/15 05:49:05;;;;;;;8.00;5.30;;;23.50;65.70;;;;;;5050099;28;20186;-83
2023/07/15 05:51:31;;;;;;;8.60;4.50;;;23.50;65.30;;;;;;5052630;28;20222;-79
2023/07/15 05:53:57;;;;;;;6.27;4.50;;;23.60;65.30;;;;;;5057479;28;20278;-79
2023/07/15 05:56:23;;;;;;;5.30;4.33;;;23.70;64.80;;;;;;5055039;28;20464;-78
2023/07/15 05:58:50;;;;;;;7.30;4.67;;;23.70;65.00;;;;;;5049029;28;20548;-79
2023/07/15 06:01:16;;;;;;;7.00;4.77;;;23.70;64.80;;;;;;5045447;28;20510;-79
2023/07/15 06:03:45;;;;;;;8.20;4.63;;;23.90;64.70;;;;;;5056812;28;20466;-79
2023/07/15 06:06:10;;;;;;;8.60;4.90;;;23.90;64.40;;;;;;5058317;28;20536;-82
2023/07/15 06:08:36;;;;;;;6.07;4.20;;;24.00;63.10;;;;;;5056299;28;20450;-79
2023/07/15 06:11:01;;;;;;;7.07;4.20;;;24.10;63.20;;;;;;5055480;28;20269;-80
2023/07/15 06:13:27;;;;;;;5.33;3.87;;;24.20;62.90;;;;;;5059883;28;20218;-79
2023/07/15 06:15:53;;;;;;;7.97;4.70;;;24.30;62.20;;;;;;5058566;28;20203;-79
2023/07/15 06:18:19;;;;;;;6.00;4.30;;;24.40;61.90;;;;;;5056748;28;20189;-80
2023/07/15 06:20:47;;;;;;;7.33;4.80;;;24.50;61.50;;;;;;5054361;28;20464;-80
2023/07/15 06:23:13;;;;;;;6.40;4.33;;;24.60;61.30;;;;;;5051434;28;20185;-80
2023/07/15 06:25:39;;;;;;;6.20;4.33;;;24.70;61.20;;;;;;5061196;28;20421;-80
2023/07/15 06:28:05;;;;;;;5.10;4.10;;;24.80;60.70;;;;;;5060806;28;20491;-81
2023/07/15 06:30:32;;;;;;;7.63;5.40;;;24.90;60.60;;;;;;5058501;28;20460;-79
2023/07/15 06:32:57;;;;;;;6.20;4.27;;;25.00;60.60;;;;;;5055678;28;20842;-79
2023/07/15 06:35:23;;;;;;;7.07;4.20;;;25.10;59.90;;;;;;5057188;28;20430;-80
2023/07/15 06:37:50;;;;;;;7.30;4.10;;;25.20;59.60;;;;;;5055798;28;20206;-78
2023/07/15 06:40:17;;;;;;;5.33;4.47;;;25.40;59.20;;;;;;5052617;28;20483;-79
2023/07/15 06:42:46;;;;;;;8.17;4.27;;;25.50;59.10;;;;;;5057217;28;20446;-79
2023/07/15 06:45:12;;;;;;;6.00;4.47;;;25.70;58.40;;;;;;5051941;28;20434;-79
2023/07/15 06:47:38;;;;;;;6.73;4.10;;;25.80;58.10;;;;;;5052533;28;20432;-82
2023/07/15 06:50:04;;;;;;;4.87;4.00;;;25.70;57.70;;;;;;5067038;28;20478;-79
2023/07/15 06:52:30;;;;;;;6.80;3.80;;;25.80;57.60;;;;;;5059024;28;20890;-80
2023/07/15 06:54:56;;;;;;;5.90;3.63;;;25.80;56.40;;;;;;5054499;28;21003;-80
2023/07/15 06:57:22;;;;;;;9.93;3.97;;;25.90;56.10;;;;;;5048195;28;20306;-79
2023/07/15 06:59:47;;;;;;;6.03;3.70;;;25.90;55.60;;;;;;5044519;28;20212;-83
2023/07/15 07:02:13;;;;;;;5.13;3.87;;;26.10;55.70;;;;;;5052603;28;20287;-80
2023/07/15 07:04:39;;;;;;;6.57;4.00;;;26.20;54.80;;;;;;5042880;28;20257;-79
2023/07/15 07:07:05;;;;;;;8.40;3.80;;;26.30;55.00;;;;;;5056143;28;20431;-80
2023/07/15 07:09:30;;;;;;;6.50;4.00;;;26.50;54.60;;;;;;5054687;28;20629;-82
2023/07/15 07:11:56;;;;;;;6.80;3.60;;;26.60;54.20;;;;;;5057216;28;20191;-84
2023/07/15 07:14:22;;;;;;;5.33;4.17;;;26.80;54.20;;;;;;5058286;28;20231;-79
2023/07/15 07:16:47;;;;;;;5.00;3.67;;;27.00;53.70;;;;;;5052330;28;20195;-82
2023/07/15 07:19:13;;;;;;;6.73;4.30;;;27.20;53.20;;;;;;5067686;28;20193;-78
2023/07/15 07:21:39;;;;;;;4.80;3.70;;;27.50;52.90;;;;;;5065242;28;20213;-81
2023/07/15 07:24:05;;;;;;;7.37;3.73;;;27.60;52.40;;;;;;5059537;28;20192;-80
2023/07/15 07:26:31;;;;;;;4.57;3.63;;;27.80;51.80;;;;;;5049835;28;20252;-79
2023/07/15 07:28:56;;;;;;;6.40;4.20;;;28.00;51.70;;;;;;5055470;28;20442;-79
2023/07/15 07:31:22;;;;;;;5.97;3.47;;;28.20;51.00;;;;;;5051787;28;20466;-79
2023/07/15 07:33:48;;;;;;;5.20;3.87;;;28.40;50.50;;;;;;5054732;28;20633;-77
2023/07/15 07:36:13;;;;;;;6.50;4.10;;;28.40;50.10;;;;;;5055944;28;20211;-76
2023/07/15 07:38:39;;;;;;;6.13;3.87;;;28.60;49.50;;;;;;5052771;28;20196;-78
2023/07/15 07:41:08;;;;;;;4.60;3.53;;;28.70;49.40;;;;;;5048169;28;20213;-80
2023/07/15 07:43:36;;;;;;;5.80;3.73;;;28.70;49.50;;;;;;5058863;28;20194;-80
2023/07/15 07:46:04;;;;;;;5.20;3.83;;;28.80;49.80;;;;;;5058642;28;20427;-79
2023/07/15 07:48:30;;;;;;;5.60;3.60;;;28.80;49.40;;;;;;5059181;28;20929;-80
2023/07/15 07:50:56;;;;;;;5.30;3.50;;;29.00;48.70;;;;;;5053345;28;20458;-77
2023/07/15 07:53:23;;;;;;;5.27;3.73;;;29.10;48.60;;;;;;5051380;28;20489;-80
2023/07/15 07:55:50;;;;;;;4.37;3.37;;;29.30;48.10;;;;;;5055688;28;20499;-79
2023/07/15 07:58:16;;;;;;;6.70;4.10;;;29.40;47.80;;;;;;5052847;28;20489;-79
2023/07/15 08:00:41;;;;;;;4.70;3.43;;;29.60;46.70;;;;;;5052238;28;20455;-77
2023/07/15 08:03:07;;;;;;;5.47;3.70;;;29.70;46.70;;;;;;5058385;28;20435;-79
2023/07/15 08:05:32;;;;;;;4.30;3.63;;;29.80;46.50;;;;;;5057572;28;20188;-79
2023/07/15 08:07:58;;;;;;;4.63;4.10;;;29.80;45.90;;;;;;5055663;28;20554;-79
2023/07/15 08:10:24;;;;;;;4.97;3.70;;;30.00;46.10;;;;;;5054473;28;20295;-79
2023/07/15 08:12:49;;;;;;;6.57;3.70;;;30.10;45.50;;;;;;5056004;28;20579;-80
2023/07/15 08:15:15;;;;;;;5.70;3.63;;;30.20;45.10;;;;;;5059535;28;20188;-79
2023/07/15 08:17:41;;;;;;;3.80;3.27;;;30.40;45.00;;;;;;5058266;28;20250;-80
2023/07/15 08:20:08;;;;;;;5.20;3.57;;;30.70;44.70;;;;;;5052924;28;20621;-78
2023/07/15 08:22:34;;;;;;;5.00;3.30;;;30.90;44.30;;;;;;5045495;28;20239;-82
2023/07/15 08:24:59;;;;;;;4.10;3.40;;;31.00;43.90;;;;;;5055291;28;20446;-80
2023/07/15 08:27:25;;;;;;;4.30;3.53;;;31.20;43.90;;;;;;5055461;28;20188;-83
2023/07/15 08:29:51;;;;;;;4.00;3.20;;;31.30;42.70;;;;;;5062338;28;20204;-81
2023/07/15 08:32:17;;;;;;;6.20;3.37;;;31.30;42.70;;;;;;5059456;28;20187;-80
2023/07/15 08:35:05;;;;;;;6.37;3.47;;;31.40;42.60;;;;;;5054708;28;20796;-78
2023/07/15 08:37:31;;;;;;;5.83;4.00;;;31.40;42.00;;;;;;5054538;28;20191;-78
2023/07/15 08:39:57;;;;;;;4.97;3.50;;;31.50;41.00;;;;;;5052683;28;20478;-79
2023/07/15 08:42:23;;;;;;;5.27;3.40;;;31.40;41.60;;;;;;5049594;28;20420;-78
2023/07/15 08:44:52;;;;;;;7.57;3.50;;;31.40;41.60;;;;;;5052537;28;20655;-80
2023/07/15 08:47:23;;;;;;;4.13;3.13;;;31.50;41.40;;;;;;5060405;28;20424;-78
2023/07/15 08:49:50;;;;;;;3.87;2.90;;;31.60;41.60;;;;;;5055613;28;20451;-77
2023/07/15 08:52:20;;;;;;;6.43;3.60;;;31.70;41.10;;;;;;5057689;28;21362;-79
2023/07/15 08:54:51;;;;;;;6.13;3.50;;;31.70;40.70;;;;;;5057218;28;20431;-77
2023/07/15 08:57:22;;;;;;;4.67;3.43;;;31.80;41.10;;;;;;5055849;28;21040;-81
2023/07/15 08:59:48;;;;;;;5.10;4.10;;;31.90;41.60;;;;;;5055135;28;20479;-79
2023/07/15 09:02:14;;;;;;;8.20;3.70;;;32.10;41.10;;;;;;5051581;28;20908;-78
2023/07/15 09:04:40;;;;;;;6.47;3.63;;;32.20;40.80;;;;;;5052747;28;20427;-79
2023/07/15 09:07:06;;;;;;;4.77;3.63;;;32.10;39.60;;;;;;5055781;28;20264;-78
2023/07/15 09:09:34;;;;;;;5.13;3.17;;;31.90;38.70;;;;;;5053928;28;20242;-78
2023/07/15 09:12:02;;;;;;;8.53;3.43;;;31.90;39.20;;;;;;5050475;28;20843;-78
2023/07/15 09:14:28;;;;;;;6.33;3.37;;;32.00;38.70;;;;;;5055761;28;20552;-77
2023/07/15 09:16:55;;;;;;;6.20;3.53;;;32.10;38.70;;;;;;5054508;28;20929;-78
2023/07/15 09:19:22;;;;;;;5.07;3.60;;;32.10;39.10;;;;;;5053352;28;20204;-77
2023/07/15 09:21:52;;;;;;;4.73;3.73;;;32.20;38.80;;;;;;5055193;28;20455;-78
2023/07/15 09:24:18;;;;;;;6.93;3.67;;;32.20;38.60;;;;;;5060252;28;20427;-77
2023/07/15 09:26:48;;;;;;;4.37;3.40;;;32.20;39.00;;;;;;5061384;28;20430;-78
2023/07/15 09:29:13;;;;;;;4.90;3.10;;;32.20;39.40;;;;;;5058031;28;20678;-78
2023/07/15 09:31:39;;;;;;;15.30;3.90;;;32.40;38.30;;;;;;5056535;28;20466;-78
2023/07/15 09:34:05;;;;;;;5.50;3.60;;;32.50;38.40;;;;;;5056645;28;20228;-78
2023/07/15 09:36:32;;;;;;;5.07;3.37;;;32.70;38.30;;;;;;5055910;28;20185;-79
2023/07/15 09:39:15;;;;;;;5.30;3.20;;;32.80;38.40;;;;;;5056099;28;20442;-77
2023/07/15 09:41:44;;;;;;;8.33;4.17;;;32.80;38.30;;;;;;5052327;28;20463;-79
2023/07/15 09:44:10;;;;;;;4.50;3.60;;;33.10;38.00;;;;;;5055175;28;20528;-77
2023/07/15 09:46:39;;;;;;;4.77;3.73;;;33.20;37.10;;;;;;5057129;28;20496;-78
2023/07/15 09:49:05;;;;;;;6.07;3.60;;;33.40;36.80;;;;;;5052472;28;20432;-78
2023/07/15 09:51:33;;;;;;;4.80;3.50;;;33.40;36.60;;;;;;5054785;28;20467;-78
2023/07/15 09:54:01;;;;;;;5.67;3.60;;;33.50;36.70;;;;;;5057533;28;20225;-78
2023/07/15 09:56:29;;;;;;;3.70;3.50;;;33.70;36.60;;;;;;5058411;28;20478;-78
2023/07/15 09:58:58;;;;;;;5.30;3.50;;;33.70;35.60;;;;;;5053205;28;20477;-78
2023/07/15 10:01:43;;;;;;;4.77;3.30;;;33.60;35.60;;;;;;5055457;28;20472;-78
2023/07/15 10:04:25;;;;;;;5.07;3.77;;;33.50;35.50;;;;;;5052687;28;20510;-78
2023/07/15 10:06:51;;;;;;;8.13;3.83;;;33.50;35.30;;;;;;5046168;28;20428;-78
2023/07/15 10:09:19;;;;;;;8.83;3.77;;;33.60;35.70;;;;;;5053618;28;20467;-78
2023/07/15 10:11:47;;;;;;;5.03;3.07;;;33.70;35.50;;;;;;5051367;28;20546;-78
2023/07/15 10:14:14;;;;;;;4.70;3.70;;;33.80;35.90;;;;;;5055519;28;20479;-78
2023/07/15 10:16:40;;;;;;;5.10;3.57;;;34.00;35.20;;;;;;5054792;28;20423;-77
2023/07/15 10:19:38;;;;;;;5.63;3.83;;;34.20;34.70;;;;;;5055103;28;21162;-79
2023/07/15 10:22:04;;;;;;;5.83;4.00;;;34.30;34.70;;;;;;5056895;28;20517;-80
2023/07/15 10:24:30;;;;;;;4.93;3.50;;;34.70;34.10;;;;;;5056330;28;20451;-78
2023/07/15 10:26:55;;;;;;;9.80;3.80;;;34.90;33.90;;;;;;5062701;28;20192;-78
2023/07/15 10:29:26;;;;;;;5.90;3.80;;;35.40;33.10;;;;;;5054807;28;20242;-77
2023/07/15 10:32:13;;;;;;;4.30;3.20;;;35.20;32.90;;;;;;5060020;28;20185;-78
2023/07/15 10:34:47;;;;;;;5.50;3.80;;;34.80;33.20;;;;;;5046242;28;20479;-78
2023/07/15 10:37:16;;;;;;;4.80;3.43;;;34.80;33.70;;;;;;5053781;28;20425;-78
2023/07/15 10:39:42;;;;;;;6.83;3.97;;;34.50;33.70;;;;;;5050588;28;20925;-77
2023/07/15 10:42:16;;;;;;;4.90;3.30;;;34.40;34.40;;;;;;5052929;28;21039;-78
2023/07/15 10:44:51;;;;;;;3.70;2.90;;;34.50;34.50;;;;;;5056219;28;20879;-78
2023/07/15 10:47:17;;;;;;;5.37;3.67;;;34.60;34.00;;;;;;5053560;28;20508;-79
2023/07/15 10:49:45;;;;;;;5.20;3.70;;;34.70;33.90;;;;;;5049730;28;20521;-77
2023/07/15 10:52:11;;;;;;;4.50;3.30;;;35.00;33.20;;;;;;5044090;28;20549;-77
2023/07/15 10:54:38;;;;;;;4.53;3.63;;;35.40;32.50;;;;;;5049670;28;20550;-78
2023/07/15 10:57:08;;;;;;;4.70;3.80;;;35.90;31.20;;;;;;5053358;28;20475;-78
2023/07/15 10:59:36;;;;;;;3.93;3.20;;;35.50;31.60;;;;;;5052670;28;20514;-78
2023/07/15 11:02:02;;;;;;;6.07;3.97;;;35.80;31.90;;;;;;5047944;28;20439;-79
2023/07/15 11:04:28;;;;;;;4.80;3.50;;;35.90;31.20;;;;;;5052284;28;20426;-78
2023/07/15 11:07:01;;;;;;;4.90;3.97;;;35.90;31.30;;;;;;5053550;28;20473;-77
2023/07/15 11:09:27;;;;;;;5.23;3.90;;;36.40;30.50;;;;;;5052936;28;20193;-81
2023/07/15 11:11:53;;;;;;;5.03;3.70;;;36.60;29.90;;;;;;5058083;28;20473;-82
2023/07/15 11:14:22;;;;;;;4.73;4.23;;;36.60;29.70;;;;;;5064042;28;20565;-80
2023/07/15 11:16:54;;;;;;;5.40;3.70;;;36.20;30.30;;;;;;5066427;28;20210;-80
2023/07/15 11:19:21;;;;;;;3.90;2.93;;;36.00;30.80;;;;;;5065890;28;20423;-80
2023/07/15 11:21:47;;;;;;;6.97;3.77;;;36.10;30.90;;;;;;5061966;28;20466;-82
2023/07/15 11:24:14;;;;;;;4.90;3.53;;;36.40;30.50;;;;;;5061216;28;20450;-79
2023/07/15 11:26:41;;;;;;;3.63;3.00;;;36.80;29.70;;;;;;5069531;28;20481;-82
2023/07/15 11:29:17;;;;;;;4.10;3.17;;;37.00;29.50;;;;;;5068570;28;20443;-87
2023/07/15 11:31:49;;;;;;;7.07;3.33;;;37.20;29.30;;;;;;5054252;28;20470;-80
2023/07/15 11:34:22;;;;;;;4.67;3.13;;;37.30;28.90;;;;;;5057784;28;20507;-79
2023/07/15 11:36:49;;;;;;;4.03;3.30;;;37.10;29.10;;;;;;5057818;28;20935;-80
2023/07/15 11:39:15;;;;;;;3.73;3.30;;;36.90;29.10;;;;;;5047603;28;20462;-79
2023/07/15 11:41:42;;;;;;;7.70;3.57;;;36.40;29.50;;;;;;5050707;28;20469;-79
2023/07/15 11:44:13;;;;;;;3.60;3.10;;;36.00;30.30;;;;;;5058246;28;20277;-80
2023/07/15 11:46:39;;;;;;;3.83;3.17;;;35.90;29.90;;;;;;5061180;28;21088;-81
2023/07/15 11:49:06;;;;;;;6.20;4.60;;;35.60;31.90;;;;;;5065164;28;20435;-81
2023/07/15 11:51:34;;;;;;;6.13;4.90;;;35.30;35.50;;;;;;5062584;28;20485;-80
2023/07/15 11:54:00;;;;;;;6.67;4.57;;;35.00;36.70;;;;;;5067196;28;20522;-79
2023/07/15 11:56:52;;;;;;;7.03;4.60;;;34.90;37.10;;;;;;5046640;28;20420;-80
2023/07/15 11:59:31;;;;;;;4.87;3.77;;;34.20;37.60;;;;;;5056823;28;20539;-80
2023/07/15 12:02:04;;;;;;;7.03;4.17;;;34.00;37.20;;;;;;5058687;28;20443;-81
2023/07/15 12:04:30;;;;;;;7.60;4.13;;;34.10;36.70;;;;;;5061419;28;20459;-82
2023/07/15 12:06:55;;;;;;;6.23;4.20;;;34.40;35.90;;;;;;5051593;28;20428;-78
2023/07/15 12:09:22;;;;;;;4.60;3.67;;;35.00;35.10;;;;;;5056929;28;20188;-79
2023/07/15 12:11:49;;;;;;;4.30;3.63;;;34.70;35.20;;;;;;5058962;28;20470;-78
2023/07/15 12:14:16;;;;;;;4.80;4.10;;;34.80;35.70;;;;;;5058586;28;20479;-79
2023/07/15 12:16:43;;;;;;;8.27;4.43;;;34.30;37.40;;;;;;5058131;28;20427;-79
2023/07/15 12:19:11;;;;;;;7.40;3.83;;;34.40;37.50;;;;;;5053257;28;20913;-79
2023/07/15 12:21:36;;;;;;;5.17;4.20;;;34.70;36.00;;;;;;5049606;28;20573;-80
2023/07/15 12:24:02;;;;;;;4.70;4.00;;;34.40;36.40;;;;;;5053452;28;20462;-78
2023/07/15 12:26:28;;;;;;;6.97;4.93;;;34.60;36.00;;;;;;5049327;28;20223;-80
2023/07/15 12:28:54;;;;;;;5.30;4.20;;;34.70;35.50;;;;;;5055325;28;20221;-82
2023/07/15 12:31:20;;;;;;;7.00;4.83;;;34.40;37.50;;;;;;5048860;28;20534;-79
2023/07/15 12:33:46;;;;;;;6.03;4.30;;;34.20;39.10;;;;;;5047429;28;20675;-79
2023/07/15 12:36:14;;;;;;;6.40;5.07;;;33.90;40.20;;;;;;5053677;28;20438;-79
2023/07/15 12:38:40;;;;;;;5.80;4.70;;;33.80;40.40;;;;;;5056793;28;20315;-79
2023/07/15 12:41:07;;;;;;;8.90;5.00;;;33.90;39.80;;;;;;5053774;28;20487;-79
2023/07/15 12:43:33;;;;;;;9.30;5.10;;;34.20;39.50;;;;;;5059236;28;20196;-81
2023/07/15 12:45:59;;;;;;;6.43;4.67;;;34.60;38.20;;;;;;5070045;28;20466;-79